Time;durP1;ratioP1;P1;durP2;ratioP2;P2;SDS_P1;SDS_P2;PMS_P1;PMS_P2;Temp;Humidity;BMP_temperature;BMP_pressure;BME280_temperature;BME280_humidity;BME280_pressure;Samples;Min_cycle;Max_cycle;Signal;HPM_P1;HPM_P2
2022/06/21 00:02:15;;;;;;;3.38;1.75;;;15.30;59.60;;;;;;9181497;19;20018;-65
2022/06/21 00:05:26;;;;;;;6.38;1.70;;;15.30;59.80;;;;;;9182573;19;20018;-65
2022/06/21 00:08:34;;;;;;;11.23;2.25;;;15.20;59.80;;;;;;9178860;19;20355;-65
2022/06/21 00:11:39;;;;;;;4.03;2.03;;;15.20;59.80;;;;;;9178854;19;20011;-65
2022/06/21 00:14:45;;;;;;;5.22;1.65;;;15.10;59.90;;;;;;9180059;19;20022;-65
2022/06/21 00:17:52;;;;;;;10.63;2.20;;;15.10;59.90;;;;;;9182646;19;20018;-65
2022/06/21 00:20:58;;;;;;;8.23;1.55;;;15.10;60.10;;;;;;9180790;19;20021;-65
2022/06/21 00:24:03;;;;;;;6.88;2.05;;;15.00;60.00;;;;;;9180722;19;20044;-65
2022/06/21 00:27:14;;;;;;;9.80;1.98;;;14.90;60.10;;;;;;9179891;19;20019;-65
2022/06/21 00:30:20;;;;;;;10.80;2.00;;;14.90;60.40;;;;;;9182642;19;20038;-65
2022/06/21 00:33:30;;;;;;;5.65;2.55;;;14.80;60.30;;;;;;9180449;19;20022;-65
2022/06/21 00:36:37;;;;;;;7.95;2.08;;;14.80;60.40;;;;;;9182220;19;20011;-65
2022/06/21 00:39:42;;;;;;;2.58;1.55;;;14.70;60.40;;;;;;9181383;19;20029;-65
2022/06/21 00:42:50;;;;;;;5.95;2.03;;;14.70;60.50;;;;;;9180950;19;20014;-65
2022/06/21 00:45:55;;;;;;;5.38;1.90;;;14.60;60.60;;;;;;9179666;19;20019;-65
2022/06/21 00:49:05;;;;;;;6.50;2.15;;;14.60;60.60;;;;;;9179543;19;20025;-65
2022/06/21 00:52:17;;;;;;;7.60;2.20;;;14.50;61.40;;;;;;9181048;19;20022;-65
2022/06/21 00:55:35;;;;;;;8.70;2.30;;;14.40;61.50;;;;;;9178751;19;20017;-66
2022/06/21 00:58:40;;;;;;;8.23;2.08;;;14.40;60.90;;;;;;9179100;19;20020;-65
2022/06/21 01:02:01;;;;;;;9.23;2.25;;;14.40;60.90;;;;;;9180200;19;20018;-91
2022/06/21 01:05:12;;;;;;;5.13;2.00;;;14.30;61.10;;;;;;9181829;19;20011;-64
2022/06/21 01:08:21;;;;;;;9.45;2.80;;;14.20;61.00;;;;;;9176189;19;20018;-64
2022/06/21 01:11:32;;;;;;;4.35;2.22;;;14.20;61.10;;;;;;9176346;19;20769;-64
2022/06/21 01:14:41;;;;;;;9.13;2.58;;;14.10;61.20;;;;;;9177408;19;20513;-63
2022/06/21 01:17:47;;;;;;;11.18;2.22;;;14.00;61.30;;;;;;9180398;19;20015;-65
2022/06/21 01:20:57;;;;;;;6.03;2.03;;;14.00;61.30;;;;;;9181828;19;20021;-64
2022/06/21 01:24:13;;;;;;;6.75;2.40;;;14.00;61.50;;;;;;9179162;19;20014;-64
2022/06/21 01:27:21;;;;;;;5.50;2.30;;;13.90;61.60;;;;;;9180446;19;20026;-64
2022/06/21 01:30:28;;;;;;;10.98;2.25;;;13.90;61.60;;;;;;9180468;19;20025;-64
2022/06/21 01:33:36;;;;;;;10.40;2.60;;;13.90;61.70;;;;;;9181120;19;20112;-64
2022/06/21 01:36:41;;;;;;;8.52;2.72;;;13.80;61.80;;;;;;9181335;19;20014;-64
2022/06/21 01:39:54;;;;;;;6.25;2.30;;;13.80;61.90;;;;;;9186594;19;20011;-64
2022/06/21 01:43:05;;;;;;;9.07;2.55;;;13.80;62.20;;;;;;9191393;19;20046;-64
2022/06/21 01:46:13;;;;;;;5.32;2.22;;;13.70;62.20;;;;;;9188050;19;20034;-63
2022/06/21 01:49:23;;;;;;;8.98;2.10;;;13.70;62.20;;;;;;9185469;19;20023;-64
2022/06/21 01:52:30;;;;;;;10.10;2.42;;;13.70;62.30;;;;;;9184667;19;20023;-64
2022/06/21 01:55:42;;;;;;;5.82;2.40;;;13.60;62.10;;;;;;9182724;19;20572;-65
2022/06/21 01:58:53;;;;;;;6.13;2.22;;;13.60;62.30;;;;;;9184169;19;20019;-64
2022/06/21 02:02:01;;;;;;;7.55;2.22;;;13.60;62.30;;;;;;9185049;19;20010;-64
2022/06/21 02:05:12;;;;;;;9.82;2.65;;;13.50;62.20;;;;;;9179944;19;20022;-63
2022/06/21 02:08:26;;;;;;;3.53;1.95;;;13.50;62.30;;;;;;9184624;19;20018;-63
2022/06/21 02:11:36;;;;;;;7.43;2.53;;;13.50;62.30;;;;;;9178236;19;20089;-62
2022/06/21 02:14:48;;;;;;;6.97;2.45;;;13.40;62.30;;;;;;9181615;19;20406;-63
2022/06/21 02:17:56;;;;;;;5.87;2.07;;;13.40;62.40;;;;;;9185968;19;20022;-63
2022/06/21 02:21:08;;;;;;;7.57;2.38;;;13.40;62.40;;;;;;9184893;19;20019;-66
2022/06/21 02:24:17;;;;;;;6.45;2.30;;;13.30;62.40;;;;;;9182856;19;20036;-64
2022/06/21 02:27:25;;;;;;;6.15;2.00;;;13.30;62.50;;;;;;9183649;19;20019;-63
2022/06/21 02:30:36;;;;;;;4.00;1.92;;;13.20;62.50;;;;;;9183063;19;20029;-65
2022/06/21 02:33:42;;;;;;;2.60;2.30;;;13.20;62.60;;;;;;9183747;19;20391;-63
2022/06/21 02:36:50;;;;;;;9.27;2.90;;;13.10;62.50;;;;;;9178491;19;20022;-63
2022/06/21 02:39:57;;;;;;;4.88;2.10;;;13.10;62.70;;;;;;9181827;19;20026;-66
2022/06/21 02:43:06;;;;;;;7.65;2.30;;;13.00;62.70;;;;;;9181933;19;20365;-64
2022/06/21 02:46:16;;;;;;;3.28;2.22;;;13.00;62.90;;;;;;9181844;19;20029;-65
2022/06/21 02:49:26;;;;;;;8.40;2.55;;;13.00;63.00;;;;;;9181258;19;20022;-63
2022/06/21 02:52:36;;;;;;;7.07;2.53;;;12.90;62.90;;;;;;9183780;19;20022;-64
2022/06/21 02:55:47;;;;;;;13.05;2.38;;;12.90;63.00;;;;;;9181047;19;20018;-62
2022/06/21 02:58:56;;;;;;;3.80;2.22;;;12.90;63.10;;;;;;9182079;19;20447;-64
2022/06/21 03:02:08;;;;;;;8.90;2.33;;;12.80;63.00;;;;;;9181176;19;20044;-64
2022/06/21 03:05:16;;;;;;;10.88;3.47;;;12.70;63.10;;;;;;9180085;19;20015;-62
2022/06/21 03:08:22;;;;;;;7.90;2.50;;;12.70;63.10;;;;;;9181935;19;20503;-63
2022/06/21 03:11:31;;;;;;;8.82;2.78;;;12.70;63.70;;;;;;9178338;19;20344;-64
2022/06/21 03:14:39;;;;;;;6.38;2.20;;;12.60;63.20;;;;;;9182019;19;20022;-64
2022/06/21 03:17:51;;;;;;;8.73;2.60;;;12.60;63.30;;;;;;9182273;19;20027;-64
2022/06/21 03:20:59;;;;;;;8.07;2.67;;;12.60;63.40;;;;;;9182459;19;20014;-64
2022/06/21 03:24:09;;;;;;;4.18;2.28;;;12.50;63.30;;;;;;9179294;19;20022;-64
2022/06/21 03:27:21;;;;;;;7.88;2.35;;;12.50;63.40;;;;;;9180795;19;20070;-62
2022/06/21 03:30:30;;;;;;;3.60;2.25;;;12.50;63.50;;;;;;9181812;19;20025;-64
2022/06/21 03:33:41;;;;;;;5.40;2.90;;;12.40;63.50;;;;;;9181423;19;20037;-63
2022/06/21 03:36:47;;;;;;;5.80;2.33;;;12.40;63.60;;;;;;9177912;19;20367;-65
2022/06/21 03:43:15;;;;;;;4.43;1.90;;;12.30;63.60;;;;;;9180017;19;20483;-63
2022/06/21 03:46:24;;;;;;;12.60;3.80;;;12.30;64.40;;;;;;9178795;19;20053;-65
2022/06/21 03:49:40;;;;;;;4.88;2.53;;;12.30;63.80;;;;;;9179039;19;20015;-63
2022/06/21 03:52:49;;;;;;;10.10;4.00;;;12.20;63.90;;;;;;9179324;19;20010;-62
2022/06/21 03:56:00;;;;;;;8.02;2.70;;;12.20;63.90;;;;;;9178798;19;20015;-64
2022/06/21 03:59:12;;;;;;;10.93;2.78;;;12.20;64.00;;;;;;9177722;19;20014;-64
2022/06/21 04:02:21;;;;;;;4.95;2.47;;;12.10;64.10;;;;;;9177695;19;20014;-64
2022/06/21 04:05:34;;;;;;;6.57;2.95;;;12.20;64.10;;;;;;9176920;19;20339;-64
2022/06/21 04:08:44;;;;;;;4.40;2.60;;;12.10;64.20;;;;;;9178980;19;20018;-64
2022/06/21 04:11:58;;;;;;;5.18;2.47;;;12.10;64.20;;;;;;9174854;19;20022;-62
2022/06/21 04:15:09;;;;;;;9.27;3.45;;;12.10;64.40;;;;;;9179423;19;20018;-62
2022/06/21 04:18:18;;;;;;;12.38;3.08;;;12.10;64.40;;;;;;9179580;19;20014;-63
2022/06/21 04:21:34;;;;;;;9.45;3.00;;;12.10;65.10;;;;;;9179842;19;20490;-62
2022/06/21 04:24:46;;;;;;;7.47;3.45;;;12.10;64.70;;;;;;9177208;19;20068;-62
2022/06/21 04:27:53;;;;;;;10.20;2.78;;;12.10;64.70;;;;;;9179531;19;20545;-63
2022/06/21 04:31:04;;;;;;;8.63;2.78;;;12.10;64.80;;;;;;9176922;19;20025;-63
2022/06/21 04:34:15;;;;;;;8.98;3.22;;;12.10;64.90;;;;;;9178705;19;20026;-64
2022/06/21 04:37:31;;;;;;;12.32;3.28;;;12.10;65.00;;;;;;9175788;19;20344;-64
2022/06/21 04:40:43;;;;;;;14.57;4.22;;;12.10;65.20;;;;;;9176750;19;20689;-62
2022/06/21 04:43:58;;;;;;;11.73;4.00;;;12.10;65.20;;;;;;9177014;19;20029;-65
2022/06/21 04:47:14;;;;;;;14.02;8.07;;;12.10;65.30;;;;;;9176521;19;20082;-64
2022/06/21 04:50:26;;;;;;;7.55;4.38;;;12.10;65.50;;;;;;9177336;19;20370;-64
2022/06/21 04:53:41;;;;;;;6.50;3.20;;;12.20;65.50;;;;;;9179169;19;20027;-64
2022/06/21 04:57:01;;;;;;;8.80;3.47;;;12.20;65.70;;;;;;9176419;19;20687;-64
2022/06/21 05:00:12;;;;;;;6.65;2.65;;;12.20;65.70;;;;;;9175357;19;20018;-65
2022/06/21 05:03:28;;;;;;;3.95;2.53;;;12.30;65.80;;;;;;9176785;19;20026;-63
2022/06/21 05:06:33;;;;;;;12.10;3.38;;;12.30;66.00;;;;;;9178066;19;20343;-65
2022/06/21 05:09:43;;;;;;;13.52;3.75;;;12.30;65.90;;;;;;9177654;19;20018;-63
2022/06/21 05:12:51;;;;;;;4.18;3.17;;;12.40;66.30;;;;;;9169060;19;20021;-65
2022/06/21 05:15:58;;;;;;;9.02;3.58;;;12.40;66.20;;;;;;9177564;19;20014;-65
2022/06/21 05:19:12;;;;;;;12.60;3.70;;;12.50;66.40;;;;;;9175708;19;20109;-64
2022/06/21 05:22:22;;;;;;;9.20;3.42;;;12.50;66.40;;;;;;9178179;19;20030;-64
2022/06/21 05:25:34;;;;;;;9.43;3.67;;;12.60;66.40;;;;;;9175857;19;20015;-63
2022/06/21 05:28:45;;;;;;;11.57;3.72;;;12.60;66.60;;;;;;9178075;19;20557;-65
2022/06/21 05:31:56;;;;;;;6.88;3.70;;;12.70;66.80;;;;;;9174046;19;20018;-64
2022/06/21 05:35:09;;;;;;;11.32;4.07;;;12.80;67.00;;;;;;9175859;19;20369;-64
2022/06/21 05:38:20;;;;;;;13.65;4.00;;;12.90;67.20;;;;;;9173962;19;20053;-68
2022/06/21 05:41:33;;;;;;;9.48;3.95;;;13.00;67.30;;;;;;9175943;19;20018;-64
2022/06/21 05:44:43;;;;;;;8.35;3.75;;;13.20;67.50;;;;;;9176364;19;20096;-64
2022/06/21 05:47:55;;;;;;;13.55;4.00;;;13.30;67.50;;;;;;9180724;19;20015;-64
2022/06/21 05:51:01;;;;;;;14.73;5.57;;;13.50;67.80;;;;;;9174335;19;20026;-64
2022/06/21 05:54:10;;;;;;;6.80;3.55;;;13.70;67.70;;;;;;9174811;19;20029;-64
2022/06/21 05:57:22;;;;;;;17.45;3.63;;;13.80;67.80;;;;;;9172755;19;20471;-63
2022/06/21 06:00:32;;;;;;;11.73;3.67;;;14.00;68.00;;;;;;9179269;19;20060;-64
2022/06/21 06:03:43;;;;;;;11.07;3.50;;;14.20;67.90;;;;;;9178635;19;20081;-64
2022/06/21 06:06:49;;;;;;;10.75;3.25;;;14.40;67.90;;;;;;9178701;19;20030;-63
2022/06/21 06:09:57;;;;;;;10.88;3.70;;;14.60;67.90;;;;;;9180336;19;20022;-64
2022/06/21 06:13:10;;;;;;;6.35;1.83;;;14.90;67.90;;;;;;9175159;19;20053;-64
2022/06/21 06:16:31;;;;;;;12.18;2.38;;;15.10;67.90;;;;;;9173325;19;20007;-68
2022/06/21 06:19:39;;;;;;;5.97;2.00;;;15.30;67.70;;;;;;9172882;19;20044;-71
2022/06/21 06:22:48;;;;;;;10.35;2.95;;;15.60;67.60;;;;;;9169322;19;20680;-69
2022/06/21 06:25:56;;;;;;;8.85;2.50;;;15.80;67.40;;;;;;9175294;19;20025;-70
2022/06/21 06:29:14;;;;;;;10.10;1.98;;;16.10;67.40;;;;;;9176663;19;20086;-68
2022/06/21 06:32:25;;;;;;;8.43;2.40;;;16.30;67.20;;;;;;9175965;19;20018;-69
2022/06/21 06:35:31;;;;;;;9.48;2.20;;;16.50;66.90;;;;;;9177492;19;20069;-67
2022/06/21 06:38:37;;;;;;;6.30;2.13;;;16.70;66.70;;;;;;9166164;19;20366;-67
2022/06/21 06:41:56;;;;;;;8.13;2.38;;;16.90;66.50;;;;;;9182101;19;20027;-67
2022/06/21 06:45:09;;;;;;;6.75;2.10;;;17.10;66.30;;;;;;9180014;19;20014;-69
2022/06/21 06:48:24;;;;;;;8.88;1.90;;;17.30;66.10;;;;;;9180892;19;20058;-70
2022/06/21 06:51:46;;;;;;;8.93;1.98;;;17.50;65.90;;;;;;9180886;19;20015;-71
2022/06/21 06:54:57;;;;;;;4.82;2.10;;;17.70;65.70;;;;;;9182490;19;20382;-70
2022/06/21 06:58:07;;;;;;;7.75;2.58;;;17.80;65.40;;;;;;9179059;19;20021;-68
2022/06/21 07:01:20;;;;;;;13.52;2.55;;;18.00;65.30;;;;;;9179215;19;20011;-66
2022/06/21 07:04:25;;;;;;;12.30;2.30;;;18.10;65.10;;;;;;9176746;19;20024;-71
2022/06/21 07:07:39;;;;;;;8.45;2.28;;;18.20;65.00;;;;;;9179953;19;20056;-69
2022/06/21 07:10:45;;;;;;;7.47;2.70;;;18.40;64.90;;;;;;9177411;19;20506;-67
2022/06/21 07:13:50;;;;;;;14.48;2.40;;;18.50;64.70;;;;;;9177393;19;20022;-66
2022/06/21 07:17:04;;;;;;;15.02;2.92;;;18.70;64.50;;;;;;9179326;19;20019;-69
2022/06/21 07:20:17;;;;;;;11.82;2.72;;;18.80;64.20;;;;;;9180162;19;20028;-73
2022/06/21 07:23:24;;;;;;;11.00;1.80;;;19.00;64.20;;;;;;9179622;19;20404;-70
2022/06/21 07:26:34;;;;;;;5.05;1.30;;;19.20;64.00;;;;;;9176223;19;20045;-71
2022/06/21 07:29:47;;;;;;;11.93;2.40;;;19.40;63.80;;;;;;9179115;19;20014;-70
2022/06/21 07:32:58;;;;;;;9.55;2.30;;;19.50;63.40;;;;;;9180964;19;20355;-72
2022/06/21 07:36:09;;;;;;;5.65;2.00;;;19.70;63.20;;;;;;9178924;19;20046;-69
2022/06/21 07:39:19;;;;;;;6.38;2.33;;;19.80;62.90;;;;;;9178993;19;20026;-69
2022/06/21 07:42:29;;;;;;;6.20;2.08;;;20.00;62.80;;;;;;9178697;19;20538;-67
2022/06/21 07:45:41;;;;;;;7.35;2.08;;;20.20;62.50;;;;;;9179767;19;20014;-70
2022/06/21 07:48:59;;;;;;;11.93;1.70;;;20.30;62.30;;;;;;9179633;19;20019;-68
2022/06/21 07:52:12;;;;;;;8.70;1.80;;;20.40;62.00;;;;;;9177771;19;20033;-66
2022/06/21 07:55:22;;;;;;;10.15;1.67;;;20.60;62.00;;;;;;9180361;19;20022;-65
2022/06/21 07:58:33;;;;;;;6.35;1.55;;;20.80;61.90;;;;;;9183388;19;20026;-66
2022/06/21 08:08:32;;;;;;;7.60;2.20;;;21.20;61.10;;;;;;9178993;19;20018;-69
2022/06/21 08:11:41;;;;;;;5.50;1.52;;;21.40;61.00;;;;;;9175903;19;20015;-69
2022/06/21 08:14:47;;;;;;;8.52;1.65;;;21.50;60.70;;;;;;9178459;19;20014;-72
2022/06/21 08:17:57;;;;;;;10.50;1.83;;;21.60;60.50;;;;;;9177589;19;20367;-68
2022/06/21 08:21:10;;;;;;;7.00;1.50;;;21.70;60.90;;;;;;9178421;19;20021;-68
2022/06/21 08:24:20;;;;;;;9.05;1.50;;;21.90;60.00;;;;;;9183239;19;20018;-69
2022/06/21 08:27:32;;;;;;;12.32;1.50;;;21.90;59.90;;;;;;9180611;19;20446;-68
2022/06/21 08:30:45;;;;;;;10.02;1.70;;;22.10;59.60;;;;;;9179816;19;20025;-67
2022/06/21 08:33:56;;;;;;;7.30;1.20;;;22.20;59.30;;;;;;9179847;19;20014;-66
2022/06/21 08:37:09;;;;;;;5.18;1.25;;;22.30;59.10;;;;;;9175453;19;20022;-68
2022/06/21 08:40:32;;;;;;;4.82;1.33;;;22.40;59.50;;;;;;9175430;19;20013;-68
2022/06/21 08:44:10;;;;;;;5.22;1.25;;;22.50;58.70;;;;;;9176303;19;20482;-68
2022/06/21 08:47:51;;;;;;;9.80;2.10;;;22.70;58.70;;;;;;9177046;19;20011;-68
2022/06/21 08:51:33;;;;;;;7.43;1.20;;;22.80;58.40;;;;;;9175452;19;20086;-67
2022/06/21 08:54:53;;;;;;;4.22;1.27;;;22.90;58.20;;;;;;9177858;19;20364;-67
2022/06/21 08:58:09;;;;;;;10.00;1.63;;;23.10;57.90;;;;;;9177541;19;20022;-69
2022/06/21 09:01:23;;;;;;;5.68;1.20;;;23.30;57.80;;;;;;9179686;19;20025;-70
2022/06/21 09:04:38;;;;;;;7.07;1.38;;;23.40;57.40;;;;;;9175297;19;20047;-70
2022/06/21 09:08:07;;;;;;;5.78;1.55;;;23.50;57.20;;;;;;9176225;19;20398;-69
2022/06/21 09:11:27;;;;;;;7.65;1.98;;;23.50;56.90;;;;;;9175307;19;20356;-70
2022/06/21 09:15:17;;;;;;;6.45;1.48;;;23.60;56.60;;;;;;9179622;19;20024;-69
2022/06/21 09:18:55;;;;;;;6.65;1.35;;;23.60;56.50;;;;;;9171494;19;20022;-66
2022/06/21 09:22:12;;;;;;;4.32;1.55;;;23.60;56.40;;;;;;9178234;19;20032;-68
2022/06/21 09:25:24;;;;;;;7.05;1.20;;;23.60;56.30;;;;;;9175150;19;20049;-67
2022/06/21 09:28:40;;;;;;;4.15;1.33;;;23.60;56.20;;;;;;9181272;19;20022;-70
2022/06/21 09:32:05;;;;;;;6.20;1.10;;;23.60;56.00;;;;;;9179516;19;20014;-68
2022/06/21 09:35:24;;;;;;;8.48;1.50;;;23.70;56.50;;;;;;9174610;19;20115;-69
2022/06/21 09:38:49;;;;;;;5.95;1.52;;;23.70;55.80;;;;;;9174948;19;20022;-66
2022/06/21 09:42:03;;;;;;;7.50;1.65;;;23.80;55.60;;;;;;9174569;19;20459;-65
2022/06/21 09:45:17;;;;;;;4.55;1.30;;;23.80;55.40;;;;;;9177343;19;20026;-65
2022/06/21 09:48:28;;;;;;;;;;;23.90;55.30;;;;;;9176535;19;20021;-66
2022/06/21 09:52:06;;;;;;;3.80;0.93;;;24.00;55.80;;;;;;9172945;19;20010;-67
2022/06/21 09:55:21;;;;;;;3.88;1.02;;;24.10;55.40;;;;;;9172783;19;20019;-65
2022/06/21 09:58:35;;;;;;;3.08;1.13;;;24.20;55.10;;;;;;9172823;19;20056;-65
2022/06/21 10:01:49;;;;;;;5.47;1.38;;;24.30;54.90;;;;;;9183150;19;20019;-65
2022/06/21 10:05:04;;;;;;;7.80;1.77;;;24.40;54.50;;;;;;9182470;19;20018;-67
2022/06/21 10:08:27;;;;;;;6.05;1.90;;;24.50;54.40;;;;;;9184604;19;20029;-64
2022/06/21 10:11:42;;;;;;;8.13;1.85;;;24.60;53.90;;;;;;9178138;19;20138;-64
2022/06/21 10:15:01;;;;;;;2.08;0.88;;;24.70;53.60;;;;;;9185087;19;20336;-67
2022/06/21 10:18:29;;;;;;;5.47;1.20;;;24.80;53.30;;;;;;9181806;19;20123;-66
2022/06/21 10:21:50;;;;;;;3.60;1.00;;;24.80;53.00;;;;;;9181832;19;20030;-67
2022/06/21 10:25:25;;;;;;;7.45;1.70;;;25.00;53.10;;;;;;9181950;19;20107;-67
2022/06/21 10:28:58;;;;;;;4.25;1.30;;;25.10;52.70;;;;;;9183077;19;20015;-66
2022/06/21 10:32:19;;;;;;;7.47;1.27;;;25.20;52.50;;;;;;9181692;19;20021;-66
2022/06/21 10:35:40;;;;;;;7.05;1.30;;;25.20;52.40;;;;;;9181881;19;20025;-65
2022/06/21 10:39:09;;;;;;;4.55;1.02;;;25.30;52.20;;;;;;9179759;19;20010;-65
2022/06/21 10:45:51;;;;;;;7.68;1.30;;;25.30;51.80;;;;;;9179773;19;20022;-67
2022/06/21 10:49:25;;;;;;;7.20;1.48;;;25.30;51.80;;;;;;9179248;19;20825;-65
2022/06/21 10:52:56;;;;;;;6.63;0.90;;;25.30;51.50;;;;;;9181738;19;20021;-66
2022/06/21 11:01:17;;;;;;;5.97;1.60;;;25.40;51.60;;;;;;9177321;19;20022;-66
2022/06/21 11:03:24;;;;;;;7.00;1.48;;;25.40;51.30;;;;;;9176706;19;20530;-66
2022/06/21 11:06:43;;;;;;;2.78;0.85;;;25.50;51.20;;;;;;9178964;19;20045;-67
2022/06/21 11:09:58;;;;;;;3.13;0.77;;;25.50;51.00;;;;;;9181115;19;20018;-66
2022/06/21 11:13:11;;;;;;;2.83;0.70;;;25.60;50.90;;;;;;9175756;19;20018;-66
2022/06/21 11:16:24;;;;;;;3.85;0.90;;;25.60;50.90;;;;;;9181931;19;20015;-66
2022/06/21 11:19:32;;;;;;;;;;;25.70;50.60;;;;;;9178712;19;20363;-67
2022/06/21 11:22:46;;;;;;;5.28;1.05;;;25.70;51.20;;;;;;9173625;19;19924;-67
2022/06/21 11:25:59;;;;;;;4.78;0.98;;;25.80;50.60;;;;;;9175678;19;20428;-66
2022/06/21 11:29:34;;;;;;;4.40;0.98;;;25.80;50.30;;;;;;9174662;19;20031;-69
2022/06/21 11:32:50;;;;;;;3.40;1.00;;;25.80;50.10;;;;;;9175010;19;20021;-65
2022/06/21 11:36:05;;;;;;;7.40;1.30;;;25.80;50.00;;;;;;9171716;19;20015;-65
2022/06/21 11:39:24;;;;;;;4.15;1.13;;;25.80;49.80;;;;;;9174007;19;20018;-68
2022/06/21 11:42:38;;;;;;;5.82;0.80;;;25.80;49.60;;;;;;9174161;19;20048;-66
2022/06/21 11:45:50;;;;;;;5.38;0.75;;;25.70;49.70;;;;;;9172920;19;20021;-67
2022/06/21 11:49:31;;;;;;;7.38;1.45;;;25.70;49.60;;;;;;9175002;19;20078;-66
2022/06/21 11:53:24;;;;;;;6.35;1.42;;;25.70;49.50;;;;;;9173138;19;20337;-66
2022/06/21 11:56:41;;;;;;;3.15;1.02;;;25.70;49.50;;;;;;9174904;19;20384;-67
2022/06/21 11:59:59;;;;;;;6.75;1.05;;;25.80;49.50;;;;;;9171710;19;20388;-68
2022/06/21 12:03:06;;;;;;;7.65;1.45;;;25.80;49.30;;;;;;9174156;19;20026;-67
2022/06/21 12:06:18;;;;;;;7.20;1.23;;;25.80;49.30;;;;;;9173037;19;20487;-68
2022/06/21 12:09:44;;;;;;;2.70;1.08;;;25.80;49.20;;;;;;9173096;19;20025;-69
2022/06/21 12:13:02;;;;;;;8.93;0.95;;;25.90;49.10;;;;;;9170372;19;20601;-68
2022/06/21 12:16:24;;;;;;;2.72;0.80;;;25.90;48.60;;;;;;9176861;19;20015;-69
2022/06/21 12:19:35;;;;;;;3.40;0.90;;;26.00;48.50;;;;;;9173280;19;20414;-68
2022/06/21 12:22:44;;;;;;;2.20;0.82;;;26.00;48.70;;;;;;9170940;19;20015;-68
2022/06/21 12:25:49;;;;;;;4.82;0.98;;;26.00;48.70;;;;;;9173442;19;20025;-68
2022/06/21 12:28:57;;;;;;;4.63;0.90;;;26.10;48.80;;;;;;9173215;19;20650;-67
2022/06/21 12:32:07;;;;;;;5.90;1.35;;;26.10;48.70;;;;;;9171323;19;20025;-70
2022/06/21 12:35:17;;;;;;;2.80;0.75;;;26.10;48.60;;;;;;9175409;19;20015;-70
2022/06/21 12:38:26;;;;;;;5.30;0.88;;;26.20;48.60;;;;;;9173528;19;20021;-67
2022/06/21 12:41:43;;;;;;;6.00;1.10;;;26.20;48.40;;;;;;9171575;19;20103;-67
2022/06/21 12:45:02;;;;;;;3.38;1.17;;;26.30;48.20;;;;;;9173661;19;20676;-68
2022/06/21 12:48:27;;;;;;;3.63;0.90;;;26.40;48.00;;;;;;9173104;19;20025;-68
2022/06/21 12:51:40;;;;;;;2.92;1.10;;;26.40;48.00;;;;;;9172203;19;20006;-68
2022/06/21 12:54:56;;;;;;;11.07;1.20;;;26.40;47.80;;;;;;9172644;19;20022;-68
2022/06/21 12:58:12;;;;;;;11.32;1.60;;;26.50;47.70;;;;;;9173667;19;20018;-68
2022/06/21 13:01:23;;;;;;;7.45;2.55;;;26.50;47.40;;;;;;9170843;19;20022;-68
2022/06/21 13:05:04;;;;;;;4.25;0.82;;;26.50;47.50;;;;;;9170295;19;20106;-68
2022/06/21 13:08:34;;;;;;;2.28;1.02;;;26.50;47.40;;;;;;9170450;19;20022;-70
2022/06/21 13:11:51;;;;;;;5.75;1.35;;;26.60;47.20;;;;;;9166962;19;20018;-69
2022/06/21 13:15:21;;;;;;;4.88;1.05;;;26.70;47.20;;;;;;9171350;19;20015;-69
2022/06/21 13:18:53;;;;;;;3.47;0.95;;;26.80;47.00;;;;;;9172081;19;20019;-68
2022/06/21 13:22:24;;;;;;;4.25;1.23;;;26.80;46.80;;;;;;9171520;19;20014;-69
2022/06/21 13:25:49;;;;;;;5.82;0.93;;;26.80;46.80;;;;;;9170055;19;20078;-69
2022/06/21 13:29:02;;;;;;;;;;;26.90;46.70;;;;;;9171353;19;20023;-69
2022/06/21 13:32:10;;;;;;;2.75;1.02;;;26.90;47.30;;;;;;9169882;19;19948;-69
2022/06/21 13:35:24;;;;;;;3.83;0.90;;;27.00;46.90;;;;;;9171044;19;20475;-68
2022/06/21 13:38:42;;;;;;;5.65;1.27;;;27.00;46.60;;;;;;9171989;19;20022;-67
2022/06/21 13:45:26;;;;;;;3.88;0.75;;;27.10;46.20;;;;;;9171267;19;20029;-67
2022/06/21 13:48:36;;;;;;;2.03;0.93;;;27.10;46.00;;;;;;9172693;19;20025;-68
2022/06/21 13:51:47;;;;;;;4.10;0.60;;;27.10;45.90;;;;;;9173387;19;20010;-68
2022/06/21 13:55:05;;;;;;;3.47;1.00;;;27.10;45.70;;;;;;9171765;19;20015;-68
2022/06/21 13:58:25;;;;;;;3.15;0.85;;;27.10;45.60;;;;;;9165399;19;20048;-67
2022/06/21 14:01:38;;;;;;;2.85;0.75;;;27.10;45.60;;;;;;9167542;19;20019;-68
2022/06/21 14:04:54;;;;;;;5.43;0.85;;;27.10;45.60;;;;;;9172350;19;20017;-68
2022/06/21 14:08:06;;;;;;;3.08;0.70;;;27.10;45.70;;;;;;9170249;19;20019;-67
2022/06/21 14:11:22;;;;;;;3.33;0.80;;;27.10;45.70;;;;;;9167923;19;20017;-68
2022/06/21 14:14:38;;;;;;;3.63;0.90;;;27.10;45.50;;;;;;9169945;19;20383;-68
2022/06/21 14:17:49;;;;;;;3.42;0.98;;;27.20;45.70;;;;;;9172432;19;20017;-68
2022/06/21 14:21:02;;;;;;;6.43;0.90;;;27.20;45.60;;;;;;9166884;19;20486;-68
2022/06/21 14:24:13;;;;;;;4.68;1.00;;;27.20;45.40;;;;;;9167969;19;20065;-68
2022/06/21 14:27:26;;;;;;;4.22;1.20;;;27.20;45.30;;;;;;9168399;19;20022;-70
2022/06/21 14:30:39;;;;;;;6.40;1.40;;;27.20;45.30;;;;;;9172497;19;20014;-69
2022/06/21 14:33:57;;;;;;;8.40;1.13;;;27.30;45.30;;;;;;9168853;19;20483;-66
2022/06/21 14:37:09;;;;;;;8.27;1.58;;;27.20;45.10;;;;;;9166224;19;20050;-69
2022/06/21 14:40:24;;;;;;;2.13;0.80;;;27.20;45.00;;;;;;9170009;19;20010;-68
2022/06/21 14:43:38;;;;;;;2.85;0.80;;;27.20;44.90;;;;;;9168594;19;20026;-66
2022/06/21 14:46:45;;;;;;;;;;;27.20;44.90;;;;;;9178580;19;20014;-68
2022/06/21 14:49:59;;;;;;;6.00;0.82;;;27.20;45.40;;;;;;9178996;19;19926;-68
2022/06/21 14:53:21;;;;;;;5.38;0.85;;;27.10;45.20;;;;;;9176879;19;20027;-68
2022/06/21 14:56:42;;;;;;;9.57;1.23;;;27.10;45.00;;;;;;9180350;19;20981;-68
2022/06/21 15:00:03;;;;;;;4.93;1.15;;;27.00;44.80;;;;;;9180979;19;20320;-67
2022/06/21 15:03:15;;;;;;;3.67;0.75;;;26.90;44.70;;;;;;9182357;19;20025;-68
2022/06/21 15:06:30;;;;;;;2.97;0.80;;;26.90;44.80;;;;;;9178382;19;20021;-68
2022/06/21 15:09:43;;;;;;;5.38;1.20;;;26.90;44.70;;;;;;9174806;19;20022;-67
2022/06/21 15:12:56;;;;;;;2.85;0.85;;;26.90;44.70;;;;;;9175432;19;20052;-69
2022/06/21 15:16:18;;;;;;;9.60;2.08;;;26.80;44.60;;;;;;9176253;19;20018;-68
2022/06/21 15:22:58;;;;;;;6.20;1.15;;;26.60;44.60;;;;;;9178581;19;21003;-68
2022/06/21 15:26:11;;;;;;;4.10;0.90;;;26.60;44.70;;;;;;9175967;19;20010;-68
2022/06/21 15:29:21;;;;;;;3.75;0.93;;;26.50;44.80;;;;;;9176381;19;20022;-68
2022/06/21 15:32:37;;;;;;;3.42;0.93;;;26.40;44.70;;;;;;9177591;19;20022;-68
2022/06/21 15:35:51;;;;;;;5.05;1.13;;;26.30;44.70;;;;;;9175673;19;20759;-68
2022/06/21 15:39:08;;;;;;;3.95;1.33;;;26.20;44.60;;;;;;9176169;19;21152;-68
2022/06/21 15:42:28;;;;;;;6.25;0.90;;;26.20;44.70;;;;;;9174218;19;20053;-67
2022/06/21 15:45:45;;;;;;;3.03;0.95;;;26.10;44.60;;;;;;9175636;19;20018;-67
2022/06/21 15:52:41;;;;;;;5.50;0.93;;;26.00;44.70;;;;;;9174372;19;20033;-69
2022/06/21 15:55:52;;;;;;;6.45;1.42;;;25.90;44.90;;;;;;9175258;19;20044;-68
2022/06/21 15:59:19;;;;;;;3.38;1.20;;;25.90;45.00;;;;;;9171884;19;20052;-69
2022/06/21 16:02:36;;;;;;;8.48;1.17;;;25.80;44.90;;;;;;9171480;19;20025;-69
2022/06/21 16:05:49;;;;;;;3.30;1.02;;;25.80;45.00;;;;;;9173969;19;20023;-70
2022/06/21 16:08:59;;;;;;;10.77;1.70;;;25.70;44.80;;;;;;9173950;19;20900;-68
2022/06/21 16:12:10;;;;;;;2.75;1.30;;;25.70;44.90;;;;;;9171411;19;20051;-68
2022/06/21 16:15:29;;;;;;;4.82;1.08;;;25.60;45.00;;;;;;9173192;19;20022;-67
2022/06/21 16:18:39;;;;;;;4.10;1.25;;;25.60;44.90;;;;;;9176193;19;20515;-67
2022/06/21 16:21:53;;;;;;;6.05;0.80;;;25.60;45.00;;;;;;9174799;19;20014;-68
2022/06/21 16:25:18;;;;;;;2.95;1.13;;;25.50;44.80;;;;;;9173858;19;20010;-68
2022/06/21 16:28:31;;;;;;;6.35;1.10;;;25.50;44.80;;;;;;9171425;19;20019;-69
2022/06/21 16:35:04;;;;;;;3.05;1.23;;;25.30;44.80;;;;;;9174976;19;20030;-68
2022/06/21 16:38:19;;;;;;;1.05;0.50;;;25.30;44.90;;;;;;9174686;19;20018;-69
2022/06/21 16:44:51;;;;;;;2.53;0.75;;;25.30;44.90;;;;;;9180964;19;20015;-68
2022/06/21 16:48:02;;;;;;;4.90;1.70;;;25.20;45.00;;;;;;9181434;19;20007;-67
2022/06/21 16:51:15;;;;;;;2.72;0.85;;;25.20;45.00;;;;;;9183230;19;20034;-67
2022/06/21 16:54:32;;;;;;;4.22;1.10;;;25.20;45.10;;;;;;9181526;19;20089;-67
2022/06/21 16:57:40;;;;;;;4.25;0.95;;;25.10;45.10;;;;;;9182530;19;20360;-68
2022/06/21 17:00:49;;;;;;;6.40;1.52;;;25.00;45.20;;;;;;9182007;19;20007;-67
2022/06/21 17:03:57;;;;;;;4.28;0.88;;;25.00;45.30;;;;;;9179059;19;20010;-67
2022/06/21 17:07:13;;;;;;;4.25;1.23;;;25.00;45.50;;;;;;9182933;19;20019;-68
2022/06/21 17:13:49;;;;;;;6.15;0.95;;;24.90;45.70;;;;;;9180213;19;20014;-68
2022/06/21 17:17:01;;;;;;;3.53;0.90;;;24.80;45.70;;;;;;9180799;19;20376;-68
2022/06/21 17:20:19;;;;;;;4.50;1.20;;;24.70;45.80;;;;;;9180784;19;20467;-68
2022/06/21 17:23:37;;;;;;;5.70;1.20;;;24.70;45.80;;;;;;9178009;19;20015;-68
2022/06/21 17:26:55;;;;;;;5.95;1.17;;;24.60;45.80;;;;;;9179674;19;20598;-67